Time;durP1;ratioP1;P1;durP2;ratioP2;P2;SDS_P1;SDS_P2;PMS_P1;PMS_P2;Temp;Humidity;BMP_temperature;BMP_pressure;BME280_temperature;BME280_humidity;BME280_pressure;Samples;Min_cycle;Max_cycle;Signal;HPM_P1;HPM_P2
2022/09/16 00:02:51;;;;;;;6.57;3.33;;;22.90;83.60;;;;;;6112548;28;83305;-59
2022/09/16 00:05:52;;;;;;;6.60;3.67;;;22.90;84.10;;;;;;6112354;28;80824;-59
2022/09/16 00:08:53;;;;;;;6.53;3.72;;;22.90;83.10;;;;;;6114024;28;80258;-59
2022/09/16 00:11:53;;;;;;;4.68;3.33;;;22.90;83.40;;;;;;6121430;28;80900;-58
2022/09/16 00:14:54;;;;;;;5.32;3.63;;;22.90;83.10;;;;;;6121507;28;86609;-59
2022/09/16 00:17:54;;;;;;;4.53;3.15;;;22.90;83.20;;;;;;6138328;28;85767;-59
2022/09/16 00:20:55;;;;;;;3.75;2.85;;;22.90;83.40;;;;;;6129356;28;82623;-59
2022/09/16 00:23:55;;;;;;;5.47;2.80;;;22.90;83.20;;;;;;6129749;28;81284;-59
2022/09/16 00:26:56;;;;;;;5.47;2.88;;;22.90;83.00;;;;;;6136162;28;81934;-60
2022/09/16 00:29:56;;;;;;;6.35;3.13;;;22.90;82.70;;;;;;6142314;28;80319;-59
2022/09/16 00:32:57;;;;;;;4.90;3.28;;;22.90;82.50;;;;;;6138164;28;80400;-59
2022/09/16 00:35:57;;;;;;;7.03;3.22;;;22.90;82.50;;;;;;6143602;28;80018;-58
2022/09/16 00:38:57;;;;;;;4.60;3.13;;;22.90;82.10;;;;;;6128379;28;80712;-59
2022/09/16 00:41:58;;;;;;;3.58;2.70;;;22.90;81.80;;;;;;6139447;28;80718;-59
2022/09/16 00:44:59;;;;;;;4.00;2.83;;;22.90;82.00;;;;;;6137438;28;88174;-59
2022/09/16 00:47:59;;;;;;;3.35;2.80;;;22.90;81.70;;;;;;6136901;28;80423;-59
2022/09/16 00:51:00;;;;;;;5.88;2.83;;;22.90;81.70;;;;;;6125551;28;80040;-59
2022/09/16 00:54:02;;;;;;;6.35;3.35;;;22.90;81.80;;;;;;6144983;28;81182;-59
2022/09/16 00:57:03;;;;;;;4.95;2.70;;;22.90;81.80;;;;;;6124151;28;82381;-58
2022/09/16 01:00:04;;;;;;;4.15;3.13;;;22.90;81.90;;;;;;6126840;28;82689;-58
2022/09/16 01:03:04;;;;;;;4.40;2.75;;;22.90;81.70;;;;;;6113346;28;83309;-58
2022/09/16 01:06:05;;;;;;;5.45;2.90;;;22.90;81.80;;;;;;6131621;28;83790;-58
2022/09/16 01:09:05;;;;;;;4.20;2.80;;;22.90;81.60;;;;;;6135009;28;82415;-58
2022/09/16 01:12:06;;;;;;;8.48;3.00;;;22.90;81.50;;;;;;6127286;28;80397;-59
2022/09/16 01:15:06;;;;;;;4.05;3.15;;;22.90;81.70;;;;;;6124849;28;80720;-59
2022/09/16 01:18:06;;;;;;;5.72;3.20;;;22.90;81.60;;;;;;6124515;28;82569;-60
2022/09/16 01:21:07;;;;;;;4.63;2.97;;;22.90;81.90;;;;;;6119738;28;88293;-60
2022/09/16 01:24:07;;;;;;;4.55;3.15;;;22.90;81.60;;;;;;6124124;28;80484;-60
2022/09/16 01:27:08;;;;;;;5.07;3.08;;;22.90;81.60;;;;;;6125393;28;80805;-58
2022/09/16 01:30:08;;;;;;;7.00;2.50;;;22.90;81.50;;;;;;6124044;28;80731;-59
2022/09/16 01:33:09;;;;;;;4.55;2.78;;;22.80;81.30;;;;;;6126287;28;80408;-58
2022/09/16 01:36:09;;;;;;;3.50;2.85;;;22.90;81.40;;;;;;6127222;28;80322;-58
2022/09/16 01:39:10;;;;;;;2.70;2.42;;;22.90;81.30;;;;;;6127213;28;81043;-59
2022/09/16 01:42:10;;;;;;;3.15;2.33;;;22.80;81.00;;;;;;6122982;28;80404;-59
2022/09/16 01:45:11;;;;;;;3.85;2.45;;;22.90;81.00;;;;;;6126391;28;83217;-59
2022/09/16 01:48:11;;;;;;;5.03;3.28;;;22.80;81.00;;;;;;6124747;28;81512;-58
2022/09/16 01:51:12;;;;;;;3.65;2.60;;;22.90;81.30;;;;;;6102591;28;80687;-59
2022/09/16 01:54:12;;;;;;;5.38;2.53;;;22.80;81.00;;;;;;6108828;28;80167;-61
2022/09/16 01:57:13;;;;;;;4.93;2.92;;;22.90;81.10;;;;;;6122928;28;80687;-61
2022/09/16 02:00:13;;;;;;;3.65;2.92;;;22.90;81.10;;;;;;6113463;28;80294;-61
2022/09/16 02:03:14;;;;;;;3.50;2.75;;;22.80;80.80;;;;;;6112622;28;83873;-61
2022/09/16 02:06:14;;;;;;;4.97;2.63;;;22.90;80.50;;;;;;6111291;28;80640;-62
2022/09/16 02:09:15;;;;;;;4.35;2.97;;;22.80;80.50;;;;;;6113509;28;81324;-62
2022/09/16 02:12:15;;;;;;;3.75;2.50;;;22.80;80.80;;;;;;6110219;28;80676;-60
2022/09/16 02:15:20;;;;;;;4.25;3.10;;;22.80;80.60;;;;;;6101935;28;80385;-61
2022/09/16 02:18:21;;;;;;;6.27;2.50;;;22.80;80.70;;;;;;6108403;28;81033;-62
2022/09/16 02:21:21;;;;;;;6.80;2.90;;;22.80;80.60;;;;;;6130660;28;80365;-62
2022/09/16 02:24:22;;;;;;;3.80;2.78;;;22.90;80.60;;;;;;6110969;28;81651;-61
2022/09/16 02:27:22;;;;;;;6.38;2.97;;;22.90;80.70;;;;;;6108700;28;81007;-62
2022/09/16 02:30:23;;;;;;;6.20;2.67;;;22.80;80.60;;;;;;6106029;28;80712;-62
2022/09/16 02:33:24;;;;;;;5.20;3.20;;;22.80;80.30;;;;;;6130745;28;80366;-62
2022/09/16 02:36:24;;;;;;;3.22;2.50;;;22.80;80.20;;;;;;6117711;28;80368;-60
2022/09/16 02:39:25;;;;;;;5.38;2.20;;;22.80;78.70;;;;;;6109849;28;85687;-60
2022/09/16 02:42:25;;;;;;;4.00;2.75;;;22.90;78.50;;;;;;6115196;28;80737;-60
2022/09/16 02:45:26;;;;;;;4.05;2.80;;;22.80;78.50;;;;;;6114744;28;80361;-60
2022/09/16 02:48:26;;;;;;;2.72;2.47;;;22.80;78.40;;;;;;6108860;28;80316;-61
2022/09/16 02:51:27;;;;;;;4.63;2.70;;;22.80;78.00;;;;;;6130422;28;80575;-60
2022/09/16 02:54:27;;;;;;;4.13;2.40;;;22.80;77.70;;;;;;6127040;28;80240;-61
2022/09/16 02:57:28;;;;;;;5.93;2.55;;;22.80;77.70;;;;;;6128056;28;80554;-61
2022/09/16 03:00:28;;;;;;;5.18;3.10;;;22.80;77.60;;;;;;6129679;28;80909;-61
2022/09/16 03:03:29;;;;;;;6.05;3.00;;;22.80;77.60;;;;;;6121189;28;80537;-61
2022/09/16 03:06:34;;;;;;;3.13;2.40;;;22.80;77.60;;;;;;6128803;28;80340;-59
2022/09/16 03:09:35;;;;;;;3.55;2.60;;;22.80;77.50;;;;;;6128376;28;84189;-59
2022/09/16 03:12:35;;;;;;;3.60;2.47;;;22.80;78.10;;;;;;6124651;28;80417;-59
2022/09/16 03:15:36;;;;;;;3.38;2.30;;;22.80;77.40;;;;;;6124044;28;85265;-60
2022/09/16 03:18:36;;;;;;;3.35;2.42;;;22.80;77.30;;;;;;6126450;28;80296;-60
2022/09/16 03:21:37;;;;;;;6.68;2.85;;;22.80;77.20;;;;;;6129936;28;80559;-60
2022/09/16 03:24:37;;;;;;;10.63;2.63;;;22.80;77.10;;;;;;6127592;28;80472;-61
2022/09/16 03:27:38;;;;;;;4.80;2.65;;;22.80;76.90;;;;;;6124318;28;80479;-60
2022/09/16 03:30:38;;;;;;;4.10;2.25;;;22.80;76.90;;;;;;6128068;28;80415;-60
2022/09/16 03:33:39;;;;;;;4.03;2.40;;;22.80;77.00;;;;;;6130394;28;86624;-60
2022/09/16 03:36:39;;;;;;;5.95;3.08;;;22.80;76.90;;;;;;6141208;28;86478;-60
2022/09/16 03:39:40;;;;;;;6.50;3.33;;;22.80;76.70;;;;;;6135496;28;80463;-61
2022/09/16 03:42:41;;;;;;;4.82;2.97;;;22.80;76.70;;;;;;6143348;28;86177;-58
2022/09/16 03:45:41;;;;;;;3.92;2.88;;;22.80;76.50;;;;;;6147701;28;80218;-60
2022/09/16 03:48:42;;;;;;;5.07;3.15;;;22.80;76.50;;;;;;6145944;28;80644;-60
2022/09/16 03:51:42;;;;;;;5.03;3.17;;;22.80;76.50;;;;;;6149340;28;82276;-58
2022/09/16 03:54:43;;;;;;;2.47;2.25;;;22.80;76.50;;;;;;6144296;28;80196;-59
2022/09/16 03:57:43;;;;;;;5.32;2.80;;;22.80;76.60;;;;;;6147108;28;80417;-59
2022/09/16 04:00:44;;;;;;;4.93;2.95;;;22.80;76.40;;;;;;6144362;28;81667;-59
2022/09/16 04:03:44;;;;;;;6.93;3.33;;;22.80;76.30;;;;;;6148991;28;81601;-59
2022/09/16 04:06:45;;;;;;;3.35;2.42;;;22.80;76.30;;;;;;6150152;28;80343;-60
2022/09/16 04:09:45;;;;;;;4.72;3.03;;;22.80;76.30;;;;;;6144047;28;81551;-60
2022/09/16 04:12:46;;;;;;;3.65;2.65;;;22.80;76.10;;;;;;6145621;28;80508;-59
2022/09/16 04:15:46;;;;;;;3.10;2.60;;;22.80;76.10;;;;;;6141879;28;80238;-59
2022/09/16 04:18:47;;;;;;;3.92;2.75;;;22.80;76.10;;;;;;6138950;28;80413;-58
2022/09/16 04:21:47;;;;;;;4.50;2.75;;;22.80;76.50;;;;;;6132737;28;80615;-61
2022/09/16 04:24:48;;;;;;;5.50;2.92;;;22.80;76.20;;;;;;6124307;28;80771;-61
2022/09/16 04:27:48;;;;;;;4.25;2.83;;;22.80;75.90;;;;;;6116022;28;80522;-59
2022/09/16 04:30:49;;;;;;;3.83;2.83;;;22.80;75.90;;;;;;6115975;28;86602;-59
2022/09/16 04:33:49;;;;;;;4.55;2.97;;;22.80;76.00;;;;;;6117001;28;80484;-60
2022/09/16 04:36:50;;;;;;;4.65;2.65;;;22.80;76.60;;;;;;6127625;28;80838;-60
2022/09/16 04:39:52;;;;;;;4.50;3.00;;;22.80;76.60;;;;;;6131853;28;81261;-61
2022/09/16 04:42:52;;;;;;;4.78;2.53;;;22.80;76.90;;;;;;6132553;28;82811;-61
2022/09/16 04:45:53;;;;;;;4.70;2.78;;;22.90;77.00;;;;;;6125321;28;80325;-61
2022/09/16 04:48:53;;;;;;;4.45;2.88;;;22.80;76.70;;;;;;6119898;28;81184;-61
2022/09/16 04:51:54;;;;;;;3.90;3.33;;;22.90;76.60;;;;;;6097685;28;81901;-60
2022/09/16 04:54:54;;;;;;;7.72;3.60;;;22.90;76.50;;;;;;6117225;28;80803;-63
2022/09/16 04:57:55;;;;;;;4.30;2.60;;;22.90;76.30;;;;;;6112191;28;81127;-57
2022/09/16 05:00:55;;;;;;;420.17;163.40;;;22.90;76.50;;;;;;6118182;28;84083;-57
2022/09/16 05:03:56;;;;;;;583.45;243.93;;;22.90;76.80;;;;;;6108754;28;85567;-58
2022/09/16 05:06:57;;;;;;;846.50;405.33;;;23.00;76.80;;;;;;6102253;28;91097;-59
2022/09/16 05:09:57;;;;;;;1041.95;504.13;;;23.00;76.70;;;;;;6105244;28;91897;-58
2022/09/16 05:12:58;;;;;;;1137.95;547.20;;;23.00;76.70;;;;;;6101265;28;85541;-57
2022/09/16 05:15:59;;;;;;;999.00;487.38;;;22.90;76.80;;;;;;6103894;28;90951;-62
2022/09/16 05:19:00;;;;;;;898.50;430.25;;;23.00;76.90;;;;;;6118602;28;88236;-63
2022/09/16 05:22:05;;;;;;;690.72;332.55;;;23.00;76.70;;;;;;6117384;28;88210;-63
2022/09/16 05:25:06;;;;;;;599.60;276.38;;;23.00;75.20;;;;;;6105937;28;92245;-63
2022/09/16 05:28:06;;;;;;;525.00;233.80;;;22.90;74.30;;;;;;6094935;28;85596;-63
2022/09/16 05:31:07;;;;;;;469.27;194.38;;;22.90;74.50;;;;;;6098899;28;85904;-62
2022/09/16 05:34:08;;;;;;;372.55;153.50;;;22.90;73.20;;;;;;6099261;28;85513;-62
2022/09/16 05:37:08;;;;;;;376.05;153.57;;;22.80;73.10;;;;;;6104614;28;85845;-62
2022/09/16 05:40:09;;;;;;;353.45;146.02;;;22.90;73.70;;;;;;6103919;28;88204;-62
2022/09/16 05:43:09;;;;;;;297.63;125.38;;;22.90;73.80;;;;;;6105025;28;88856;-62
2022/09/16 05:46:10;;;;;;;284.13;115.68;;;22.90;73.80;;;;;;6098117;28;85573;-62
2022/09/16 05:49:10;;;;;;;237.77;103.35;;;22.90;73.60;;;;;;6100898;28;87160;-62
2022/09/16 05:52:11;;;;;;;212.52;94.32;;;23.00;73.50;;;;;;6105777;28;85491;-55
2022/09/16 05:55:11;;;;;;;193.00;84.22;;;23.00;73.20;;;;;;6104557;28;84110;-53
2022/09/16 05:58:12;;;;;;;171.48;76.55;;;23.10;73.00;;;;;;6124205;28;82984;-56
2022/09/16 06:01:12;;;;;;;169.88;69.43;;;23.00;72.80;;;;;;6121827;28;85674;-56
2022/09/16 06:04:13;;;;;;;162.40;67.57;;;23.00;72.50;;;;;;6126040;28;83066;-58
2022/09/16 06:07:13;;;;;;;144.60;60.80;;;23.00;72.60;;;;;;6142244;28;86598;-57
2022/09/16 06:10:14;;;;;;;139.10;56.10;;;23.00;72.00;;;;;;6121099;28;82981;-56
2022/09/16 06:13:14;;;;;;;110.38;46.00;;;23.00;71.80;;;;;;6121162;28;89379;-56
2022/09/16 06:16:15;;;;;;;115.35;50.60;;;23.00;71.70;;;;;;6101748;28;83010;-57
2022/09/16 06:19:16;;;;;;;101.63;43.70;;;23.00;71.80;;;;;;6132693;28;83915;-56
2022/09/16 06:22:16;;;;;;;85.05;36.45;;;23.10;72.60;;;;;;6112534;28;83442;-57
2022/09/16 06:25:17;;;;;;;81.75;34.35;;;23.00;71.60;;;;;;6133511;28;84179;-59
2022/09/16 06:28:17;;;;;;;91.63;36.30;;;23.00;71.50;;;;;;6126294;28;85712;-59
2022/09/16 06:31:18;;;;;;;76.63;32.53;;;23.00;71.50;;;;;;6144283;28;82945;-59
2022/09/16 06:34:18;;;;;;;66.00;29.30;;;23.00;71.50;;;;;;6145293;28;83136;-59
2022/09/16 06:37:19;;;;;;;58.47;25.20;;;23.00;71.20;;;;;;6143333;28;83103;-59
2022/09/16 06:40:19;;;;;;;64.03;26.88;;;23.10;71.30;;;;;;6124811;28;88246;-61
2022/09/16 06:43:20;;;;;;;59.45;24.40;;;23.00;71.50;;;;;;6124059;28;85869;-61
2022/09/16 06:46:20;;;;;;;52.85;20.10;;;23.10;71.30;;;;;;6123013;28;84553;-60
2022/09/16 06:49:20;;;;;;;41.10;19.58;;;23.10;70.80;;;;;;6118229;28;85829;-59
2022/09/16 06:52:21;;;;;;;36.92;18.17;;;23.10;71.20;;;;;;6116853;28;83083;-59
2022/09/16 06:55:21;;;;;;;47.30;17.83;;;23.10;70.40;;;;;;6123397;28;86656;-60
2022/09/16 06:58:22;;;;;;;35.75;15.70;;;23.10;70.60;;;;;;6122512;28;83388;-68
2022/09/16 07:01:22;;;;;;;30.00;13.43;;;23.10;69.70;;;;;;6121592;28;86353;-59
2022/09/16 07:04:23;;;;;;;29.27;13.00;;;23.10;69.30;;;;;;6128153;28;83245;-61
2022/09/16 07:07:23;;;;;;;29.35;11.70;;;23.00;68.80;;;;;;6124325;28;88335;-59
2022/09/16 07:10:24;;;;;;;29.10;11.27;;;23.00;69.30;;;;;;6124387;28;89886;-58
2022/09/16 07:13:25;;;;;;;21.05;10.20;;;23.10;68.60;;;;;;6155703;28;86564;-60
2022/09/16 07:16:25;;;;;;;17.77;8.93;;;23.10;68.80;;;;;;6155437;28;88524;-63
2022/09/16 07:19:26;;;;;;;21.45;9.27;;;23.10;69.00;;;;;;6155154;28;83036;-59
2022/09/16 07:22:26;;;;;;;13.48;6.63;;;23.10;67.90;;;;;;6136869;28;82073;-61
2022/09/16 07:25:27;;;;;;;16.00;6.18;;;23.20;67.30;;;;;;6133437;28;85902;-60
2022/09/16 07:28:27;;;;;;;11.20;5.07;;;23.10;65.80;;;;;;6139844;28;80745;-59
2022/09/16 07:31:28;;;;;;;16.83;4.57;;;23.10;65.20;;;;;;6144204;28;80453;-58
2022/09/16 07:34:29;;;;;;;11.30;4.00;;;23.10;64.20;;;;;;6138848;28;80453;-60
2022/09/16 07:37:30;;;;;;;8.32;2.95;;;23.20;63.60;;;;;;6128232;28;80499;-60
2022/09/16 07:40:30;;;;;;;5.53;3.05;;;23.10;62.90;;;;;;6143484;28;84804;-62
2022/09/16 07:43:31;;;;;;;8.65;2.88;;;23.00;61.80;;;;;;6151774;28;80461;-59
2022/09/16 07:46:31;;;;;;;5.60;2.47;;;23.00;61.60;;;;;;6135113;28;81220;-61
2022/09/16 07:49:32;;;;;;;6.50;2.90;;;23.00;61.10;;;;;;6135524;28;80502;-58
2022/09/16 07:52:32;;;;;;;7.10;3.15;;;22.80;60.40;;;;;;6130144;28;80611;-59
2022/09/16 07:55:33;;;;;;;4.20;2.55;;;22.80;60.60;;;;;;6135161;28;80551;-59
2022/09/16 07:58:33;;;;;;;8.02;3.05;;;22.90;60.70;;;;;;6107045;28;80941;-60
2022/09/16 08:01:34;;;;;;;7.25;2.92;;;23.00;60.70;;;;;;6119049;28;87651;-60
2022/09/16 08:04:34;;;;;;;3.47;2.22;;;23.00;60.50;;;;;;6145369;28;81154;-61
2022/09/16 08:07:35;;;;;;;6.38;2.30;;;23.10;60.20;;;;;;6132730;28;80784;-60
2022/09/16 08:10:36;;;;;;;3.63;2.65;;;23.10;60.40;;;;;;6136320;28;81394;-59
2022/09/16 08:13:36;;;;;;;5.68;3.35;;;23.10;60.30;;;;;;6138514;28;80296;-59
2022/09/16 08:16:37;;;;;;;5.95;3.15;;;23.00;60.10;;;;;;6128508;28;82843;-60
2022/09/16 08:19:38;;;;;;;9.90;2.30;;;23.00;59.80;;;;;;6117131;28;80444;-59
2022/09/16 08:22:38;;;;;;;6.70;2.50;;;23.00;59.80;;;;;;6101831;28;80268;-60
2022/09/16 08:25:40;;;;;;;3.90;2.28;;;23.00;59.90;;;;;;6102636;28;81517;-60
2022/09/16 08:28:40;;;;;;;9.00;2.60;;;23.00;59.70;;;;;;6110103;28;81029;-59
2022/09/16 08:31:41;;;;;;;5.90;2.63;;;23.00;59.60;;;;;;6096271;28;82662;-61
2022/09/16 08:34:41;;;;;;;4.60;2.53;;;23.00;59.60;;;;;;6124354;28;80613;-61
2022/09/16 08:37:42;;;;;;;4.60;2.58;;;23.00;59.90;;;;;;6125513;28;80946;-66
2022/09/16 08:40:42;;;;;;;3.30;2.50;;;23.00;59.10;;;;;;6142550;28;86699;-61
2022/09/16 08:43:44;;;;;;;6.75;2.63;;;23.00;59.40;;;;;;6133944;28;84190;-60
2022/09/16 08:46:44;;;;;;;4.20;2.72;;;23.00;59.60;;;;;;6148108;28;80412;-61
2022/09/16 08:49:45;;;;;;;5.68;2.85;;;23.00;59.80;;;;;;6145130;28;81471;-61
2022/09/16 08:52:46;;;;;;;4.10;2.33;;;23.00;59.40;;;;;;6138295;28;80664;-61
2022/09/16 08:55:46;;;;;;;14.82;2.72;;;23.00;59.60;;;;;;6141727;28;80604;-60
2022/09/16 08:58:47;;;;;;;4.28;2.50;;;23.00;58.90;;;;;;6140211;28;80036;-60
2022/09/16 09:01:48;;;;;;;5.13;2.28;;;22.90;59.20;;;;;;6121592;28;84983;-61
2022/09/16 09:04:48;;;;;;;4.97;2.75;;;22.90;59.10;;;;;;6105243;28;85552;-61
2022/09/16 09:07:49;;;;;;;7.03;2.80;;;22.90;59.00;;;;;;6120760;28;80504;-64
2022/09/16 09:10:49;;;;;;;4.05;2.42;;;22.80;58.50;;;;;;6110474;28;82911;-61
2022/09/16 09:13:50;;;;;;;4.53;2.53;;;22.90;59.00;;;;;;6126107;28;80292;-61
2022/09/16 09:16:50;;;;;;;9.73;3.05;;;22.90;58.90;;;;;;6123873;28;84360;-61
2022/09/16 09:19:51;;;;;;;3.17;2.03;;;22.90;58.90;;;;;;6127905;28;80334;-63
2022/09/16 09:22:53;;;;;;;2.85;2.00;;;22.90;59.00;;;;;;6111991;28;80744;-61
2022/09/16 09:25:53;;;;;;;4.35;2.17;;;22.90;59.00;;;;;;6105401;28;80402;-61
2022/09/16 09:28:54;;;;;;;3.72;2.40;;;22.90;58.70;;;;;;6104228;28;81000;-61
2022/09/16 09:31:54;;;;;;;9.00;2.30;;;22.90;58.80;;;;;;6118225;28;80893;-58
2022/09/16 09:34:55;;;;;;;3.60;2.40;;;22.90;58.80;;;;;;6118900;28;81699;-59
2022/09/16 09:37:55;;;;;;;6.80;2.85;;;22.90;58.90;;;;;;6121251;28;80580;-59
2022/09/16 09:40:57;;;;;;;6.25;2.60;;;22.90;59.00;;;;;;6121321;28;82576;-58
2022/09/16 09:43:58;;;;;;;13.82;5.50;;;23.00;59.40;;;;;;6127623;28;80471;-59
2022/09/16 09:46:58;;;;;;;33.05;16.20;;;23.00;59.20;;;;;;6103975;28;80771;-59
2022/09/16 09:49:58;;;;;;;114.18;47.72;;;23.00;59.30;;;;;;6105830;28;83140;-60
2022/09/16 09:52:59;;;;;;;93.07;42.85;;;23.00;59.40;;;;;;6106590;28;84261;-64
2022/09/16 09:56:00;;;;;;;94.25;41.72;;;23.00;59.50;;;;;;6123895;28;82853;-60
2022/09/16 09:59:00;;;;;;;92.43;42.38;;;23.00;59.20;;;;;;6131208;28;82755;-60
2022/09/16 10:02:01;;;;;;;101.93;37.10;;;23.00;59.20;;;;;;6121122;28;83145;-60
2022/09/16 10:05:02;;;;;;;63.28;27.20;;;23.00;59.30;;;;;;6115410;28;83270;-61
2022/09/16 10:08:02;;;;;;;53.05;22.35;;;22.90;59.90;;;;;;6121279;28;83108;-60
2022/09/16 10:11:03;;;;;;;57.72;22.60;;;22.90;59.20;;;;;;6121376;28;83045;-60
2022/09/16 10:14:04;;;;;;;39.40;18.75;;;22.90;59.60;;;;;;6126083;28;82934;-60
2022/09/16 10:17:05;;;;;;;26.30;12.98;;;22.90;59.70;;;;;;6066923;28;85833;-60
2022/09/16 10:20:09;;;;;;;33.67;12.90;;;23.00;59.90;;;;;;6073279;28;85750;-61
2022/09/16 10:23:09;;;;;;;22.55;10.45;;;23.00;59.90;;;;;;6103255;28;86849;-59
2022/09/16 10:26:10;;;;;;;15.70;8.20;;;23.00;59.90;;;;;;6125773;28;84133;-62
2022/09/16 10:29:10;;;;;;;14.50;7.40;;;23.00;59.50;;;;;;6101738;28;82948;-62
2022/09/16 10:32:11;;;;;;;20.08;7.63;;;23.00;59.50;;;;;;6091532;28;83715;-62
2022/09/16 10:35:11;;;;;;;19.58;6.25;;;22.90;59.80;;;;;;6126246;28;80372;-62
2022/09/16 10:38:12;;;;;;;11.63;5.50;;;23.00;59.80;;;;;;6093207;28;83788;-62
2022/09/16 10:41:12;;;;;;;9.38;4.93;;;23.00;59.30;;;;;;6099696;28;80918;-61
2022/09/16 10:44:13;;;;;;;9.15;4.07;;;23.00;58.70;;;;;;6116293;28;82471;-63
2022/09/16 10:47:13;;;;;;;12.05;4.38;;;23.00;58.80;;;;;;6112434;28;80444;-58
2022/09/16 10:50:14;;;;;;;9.60;4.72;;;23.00;58.50;;;;;;6128394;28;80539;-56
2022/09/16 10:53:14;;;;;;;13.18;4.10;;;23.10;58.30;;;;;;6124377;28;80522;-57
2022/09/16 10:56:15;;;;;;;6.75;3.97;;;23.10;58.20;;;;;;6107855;28;83272;-56
2022/09/16 10:59:15;;;;;;;16.33;4.75;;;23.20;58.00;;;;;;6119678;28;82207;-57
2022/09/16 11:02:16;;;;;;;11.98;4.20;;;23.20;58.00;;;;;;6104974;28;80623;-54
2022/09/16 11:05:16;;;;;;;9.45;4.00;;;23.10;58.60;;;;;;6099875;28;83224;-59
2022/09/16 11:08:17;;;;;;;19.02;5.00;;;23.20;58.90;;;;;;6095105;28;83318;-66
2022/09/16 11:11:17;;;;;;;12.52;5.00;;;23.20;58.60;;;;;;6105432;28;81239;-60
2022/09/16 11:14:18;;;;;;;6.28;3.58;;;23.30;58.60;;;;;;6098511;28;80837;-60
2022/09/16 11:17:18;;;;;;;8.40;3.63;;;23.30;58.60;;;;;;6087006;28;94053;-59
2022/09/16 11:20:18;;;;;;;8.98;3.35;;;23.30;58.10;;;;;;6112250;28;81477;-61
2022/09/16 11:23:19;;;;;;;6.05;3.10;;;23.30;58.10;;;;;;6121765;28;80817;-59
2022/09/16 11:26:19;;;;;;;7.32;2.70;;;23.40;58.30;;;;;;6111136;28;86377;-60
2022/09/16 11:29:20;;;;;;;7.05;3.03;;;23.30;58.30;;;;;;6125682;28;82922;-60
2022/09/16 11:32:21;;;;;;;5.00;3.00;;;23.40;58.30;;;;;;6114918;28;83497;-59
2022/09/16 11:35:21;;;;;;;4.50;2.15;;;23.50;58.30;;;;;;6121735;28;80191;-61
2022/09/16 11:38:22;;;;;;;5.90;2.45;;;23.60;58.40;;;;;;6124855;28;80373;-60
2022/09/16 11:41:22;;;;;;;3.95;2.25;;;23.60;58.40;;;;;;6128459;28;80455;-61
2022/09/16 11:44:23;;;;;;;4.72;2.47;;;23.60;58.40;;;;;;6105086;28;85577;-59
2022/09/16 11:47:24;;;;;;;9.13;3.03;;;23.60;58.50;;;;;;6088465;28;80533;-60
2022/09/16 11:50:24;;;;;;;6.30;3.25;;;23.60;58.50;;;;;;6089436;28;80886;-60
2022/09/16 11:53:25;;;;;;;10.98;3.78;;;23.60;58.40;;;;;;6098881;28;80599;-61
2022/09/16 11:56:25;;;;;;;7.75;2.75;;;23.60;58.30;;;;;;6098450;28;82246;-62
2022/09/16 11:59:26;;;;;;;4.28;2.45;;;23.60;57.40;;;;;;6098448;28;82948;-61
2022/09/16 12:02:27;;;;;;;5.35;2.33;;;23.70;57.90;;;;;;6092483;28;83002;-61
2022/09/16 12:05:28;;;;;;;2.70;2.30;;;23.70;57.10;;;;;;6093949;28;80872;-61
2022/09/16 12:08:28;;;;;;;9.43;2.20;;;23.70;57.00;;;;;;6100896;28;81848;-61
2022/09/16 12:11:31;;;;;;;2.72;1.92;;;23.80;57.00;;;;;;6100645;28;80610;-61
2022/09/16 12:14:32;;;;;;;5.43;1.80;;;23.80;56.80;;;;;;6099236;28;80871;-61
2022/09/16 12:17:32;;;;;;;2.50;1.70;;;23.80;56.50;;;;;;6094895;28;81146;-58
2022/09/16 12:20:33;;;;;;;1.90;1.52;;;23.80;56.50;;;;;;6106594;28;83018;-58
2022/09/16 12:23:33;;;;;;;2.67;1.50;;;23.50;55.10;;;;;;6111461;28;80744;-55
2022/09/16 12:26:35;;;;;;;5.28;2.40;;;23.40;55.00;;;;;;6121322;28;84445;-57
2022/09/16 12:29:35;;;;;;;2.38;1.80;;;23.50;55.10;;;;;;6118110;28;84800;-56
2022/09/16 12:32:35;;;;;;;2.50;1.80;;;23.40;55.10;;;;;;6112880;28;85983;-56
2022/09/16 12:35:36;;;;;;;4.97;2.00;;;23.40;55.40;;;;;;6101510;28;80641;-60
2022/09/16 12:38:38;;;;;;;7.72;1.80;;;23.20;55.90;;;;;;6099881;28;80398;-60
2022/09/16 12:41:39;;;;;;;2.10;1.70;;;23.10;55.30;;;;;;6101515;28;81165;-61
2022/09/16 12:44:39;;;;;;;5.28;1.60;;;23.00;55.00;;;;;;6109168;28;80504;-60
2022/09/16 12:47:40;;;;;;;4.07;1.38;;;23.00;54.90;;;;;;6106033;28;81289;-61
2022/09/16 12:50:42;;;;;;;3.28;1.48;;;22.90;55.10;;;;;;6103286;28;80444;-60
2022/09/16 12:53:45;;;;;;;11.57;1.58;;;22.90;55.60;;;;;;6115861;28;85826;-58
2022/09/16 12:56:45;;;;;;;7.85;1.60;;;22.90;56.10;;;;;;6109499;28;81188;-58
2022/09/16 12:59:46;;;;;;;3.83;1.38;;;22.90;55.80;;;;;;6107058;28;80439;-59
2022/09/16 13:02:46;;;;;;;2.13;1.48;;;22.80;55.50;;;;;;6103984;28;81954;-59
2022/09/16 13:05:47;;;;;;;1.48;1.13;;;22.80;56.30;;;;;;6102793;28;83260;-60
2022/09/16 13:08:47;;;;;;;2.92;1.33;;;22.80;56.10;;;;;;6108465;28;80303;-60
2022/09/16 13:11:47;;;;;;;1.83;1.20;;;22.80;56.00;;;;;;6103162;28;86962;-61
2022/09/16 13:14:48;;;;;;;1.90;1.45;;;22.70;56.30;;;;;;6105095;28;80761;-59
2022/09/16 13:17:51;;;;;;;2.05;1.30;;;22.70;55.90;;;;;;6106489;28;80825;-60
2022/09/16 13:20:52;;;;;;;2.95;1.30;;;22.80;56.20;;;;;;6117265;28;85129;-60
2022/09/16 13:23:52;;;;;;;2.17;1.40;;;22.80;55.80;;;;;;6113607;28;80782;-64
2022/09/16 13:26:54;;;;;;;3.28;1.65;;;22.80;56.30;;;;;;6124797;28;80584;-60
2022/09/16 13:29:54;;;;;;;2.45;1.50;;;22.80;56.50;;;;;;6125497;28;80252;-60
2022/09/16 13:32:55;;;;;;;7.50;1.67;;;22.80;56.80;;;;;;6116690;28;83113;-59
2022/09/16 13:35:55;;;;;;;2.97;1.88;;;22.80;57.00;;;;;;6125924;28;81333;-59
2022/09/16 13:38:56;;;;;;;3.45;1.55;;;22.80;57.20;;;;;;6127660;28;80643;-69
2022/09/16 13:41:56;;;;;;;3.55;1.80;;;22.90;57.40;;;;;;6122157;28;80914;-58
2022/09/16 13:44:57;;;;;;;5.00;2.25;;;22.90;57.50;;;;;;6120143;28;82374;-59
2022/09/16 13:47:57;;;;;;;2.63;1.73;;;23.00;57.80;;;;;;6105832;28;80185;-62
2022/09/16 13:50:58;;;;;;;13.18;2.58;;;22.90;57.80;;;;;;6107902;28;82819;-62
2022/09/16 13:54:03;;;;;;;38.47;15.93;;;22.90;57.90;;;;;;6113140;28;80551;-61
2022/09/16 13:57:03;;;;;;;114.47;43.25;;;23.00;58.10;;;;;;6111378;28;86346;-61
2022/09/16 14:00:04;;;;;;;119.22;50.15;;;23.00;58.10;;;;;;6113136;28;84453;-70
2022/09/16 14:03:05;;;;;;;169.60;71.03;;;23.00;58.20;;;;;;6114522;28;86284;-60
2022/09/16 14:06:05;;;;;;;197.07;81.45;;;23.10;58.40;;;;;;6119426;28;83388;-59
2022/09/16 14:09:06;;;;;;;156.65;61.90;;;23.10;58.50;;;;;;6120162;28;87585;-55
2022/09/16 14:12:06;;;;;;;116.80;47.00;;;23.00;58.50;;;;;;6112444;28;86627;-57
2022/09/16 14:15:07;;;;;;;112.07;45.95;;;23.00;58.70;;;;;;6095476;28;87094;-57
2022/09/16 14:18:07;;;;;;;100.72;38.15;;;23.10;58.90;;;;;;6113259;28;83592;-57
2022/09/16 14:21:08;;;;;;;85.63;33.13;;;23.10;58.80;;;;;;6102562;28;83666;-58
2022/09/16 14:24:08;;;;;;;70.40;30.23;;;23.10;58.90;;;;;;6108650;28;84272;-57
2022/09/16 14:27:09;;;;;;;66.78;23.55;;;23.10;58.90;;;;;;6123860;28;90547;-54
2022/09/16 14:30:09;;;;;;;55.17;22.13;;;23.10;59.00;;;;;;6117631;28;83534;-58
2022/09/16 14:33:10;;;;;;;54.78;20.95;;;23.10;59.10;;;;;;6105526;28;86929;-57
2022/09/16 14:36:10;;;;;;;43.13;18.40;;;23.10;59.30;;;;;;6108184;28;85760;-58
2022/09/16 14:39:11;;;;;;;38.22;16.50;;;23.10;59.20;;;;;;6111211;28;85024;-54
2022/09/16 14:42:11;;;;;;;37.47;13.95;;;23.10;59.30;;;;;;6106405;28;83063;-56
2022/09/16 14:45:12;;;;;;;38.90;13.15;;;23.10;59.20;;;;;;6106973;28;88123;-56
2022/09/16 14:48:13;;;;;;;24.88;10.63;;;23.10;59.30;;;;;;6109130;28;83901;-57
2022/09/16 14:51:13;;;;;;;32.75;10.40;;;23.10;59.20;;;;;;6106566;28;89623;-59
2022/09/16 14:54:14;;;;;;;19.33;8.90;;;23.10;59.10;;;;;;6110597;28;83437;-58
2022/09/16 14:57:14;;;;;;;25.20;8.70;;;23.10;59.90;;;;;;6122861;28;81680;-58
2022/09/16 15:00:16;;;;;;;16.80;7.40;;;23.10;59.40;;;;;;6124921;28;81960;-60
2022/09/16 15:03:16;;;;;;;18.23;4.85;;;23.10;59.40;;;;;;6128538;28;80470;-60
2022/09/16 15:06:17;;;;;;;13.35;4.90;;;23.00;59.00;;;;;;6105487;28;83197;-60
2022/09/16 15:09:17;;;;;;;8.55;3.85;;;22.90;59.60;;;;;;6098424;28;83711;-60
2022/09/16 15:12:18;;;;;;;8.30;4.03;;;22.90;59.70;;;;;;6111169;28;82960;-60
2022/09/16 15:15:18;;;;;;;6.63;3.17;;;22.90;59.90;;;;;;6108417;28;80225;-61
2022/09/16 15:18:19;;;;;;;7.65;3.05;;;22.90;60.20;;;;;;6107360;28;80586;-60
2022/09/16 15:21:19;;;;;;;8.63;3.90;;;22.90;60.20;;;;;;6114975;28;80415;-57
2022/09/16 15:24:20;;;;;;;76.50;27.02;;;22.90;60.30;;;;;;6107383;28;83839;-56
2022/09/16 15:27:20;;;;;;;125.07;51.72;;;22.90;60.30;;;;;;6105518;28;85756;-58
2022/09/16 15:30:21;;;;;;;180.25;72.90;;;23.00;60.30;;;;;;6107772;28;83630;-58